Colfax, North Dakota
Current Conditions -  °F | °C
As of 7:35 PM on Wednesday 26 Nov 2014 (Local Time) from KBWP Reporting Station
Clear Clear  
Wind Chill: -17°   Ceiling: Unl
Heat Index:   Visibility: 10mi
Dew Point: -6°   Wind: 10mph
Humidity: 78%   Direction: 350°N
Pressure: 30.5"   Gusts: NA
Location:  46.47°N, 96.87°W
Report Text: KBWP 270135Z AUTO 35009KT 10SM CLR M18/M21 A3050 RMK AO1
Loading
Personal Weather Stations






























Interactive Weather Map New forecast layout! Learn more

10-Day Weather Forecast

Advertisements
Track Severe Weather on mobile